sensor_id;sensor_type;location;lat;lon;timestamp;P1;durP1;ratioP1;P2;durP2;ratioP2
43363;SDS011;40636;52.424;-1.948;2023-02-24T00:01:52;9.32;;;3.53;;
43363;SDS011;40636;52.424;-1.948;2023-02-24T00:04:28;12.93;;;3.30;;
43363;SDS011;40636;52.424;-1.948;2023-02-24T00:06:57;5.10;;;3.00;;
43363;SDS011;40636;52.424;-1.948;2023-02-24T00:09:25;10.88;;;2.55;;
43363;SDS011;40636;52.424;-1.948;2023-02-24T00:11:54;6.00;;;2.90;;
43363;SDS011;40636;52.424;-1.948;2023-02-24T00:14:31;5.07;;;2.60;;
43363;SDS011;40636;52.424;-1.948;2023-02-24T00:17:00;5.28;;;2.90;;
43363;SDS011;40636;52.424;-1.948;2023-02-24T00:19:28;5.38;;;2.35;;
43363;SDS011;40636;52.424;-1.948;2023-02-24T00:21:59;11.65;;;4.50;;
43363;SDS011;40636;52.424;-1.948;2023-02-24T00:24:27;4.35;;;2.22;;
43363;SDS011;40636;52.424;-1.948;2023-02-24T00:26:55;8.02;;;2.47;;
43363;SDS011;40636;52.424;-1.948;2023-02-24T00:29:25;7.18;;;2.75;;
43363;SDS011;40636;52.424;-1.948;2023-02-24T00:31:55;10.10;;;2.47;;
43363;SDS011;40636;52.424;-1.948;2023-02-24T00:34:29;5.40;;;2.47;;
43363;SDS011;40636;52.424;-1.948;2023-02-24T00:36:59;8.45;;;2.65;;
43363;SDS011;40636;52.424;-1.948;2023-02-24T00:39:27;4.50;;;2.42;;
43363;SDS011;40636;52.424;-1.948;2023-02-24T00:41:55;4.72;;;1.80;;
43363;SDS011;40636;52.424;-1.948;2023-02-24T00:44:35;4.45;;;1.90;;
43363;SDS011;40636;52.424;-1.948;2023-02-24T00:47:04;3.70;;;2.25;;
43363;SDS011;40636;52.424;-1.948;2023-02-24T00:49:32;5.75;;;1.80;;
43363;SDS011;40636;52.424;-1.948;2023-02-24T00:52:01;3.85;;;3.45;;
43363;SDS011;40636;52.424;-1.948;2023-02-24T00:54:36;5.00;;;1.95;;
43363;SDS011;40636;52.424;-1.948;2023-02-24T00:57:03;6.18;;;1.90;;
43363;SDS011;40636;52.424;-1.948;2023-02-24T00:59:29;2.28;;;1.30;;
43363;SDS011;40636;52.424;-1.948;2023-02-24T01:01:56;3.33;;;1.98;;
43363;SDS011;40636;52.424;-1.948;2023-02-24T01:04:23;6.07;;;1.88;;
43363;SDS011;40636;52.424;-1.948;2023-02-24T01:06:51;3.13;;;1.85;;
43363;SDS011;40636;52.424;-1.948;2023-02-24T01:09:27;2.42;;;1.63;;
43363;SDS011;40636;52.424;-1.948;2023-02-24T01:11:54;4.28;;;1.40;;
43363;SDS011;40636;52.424;-1.948;2023-02-24T01:14:42;3.00;;;1.20;;
43363;SDS011;40636;52.424;-1.948;2023-02-24T01:17:09;2.92;;;1.75;;
43363;SDS011;40636;52.424;-1.948;2023-02-24T01:19:37;5.32;;;1.40;;
43363;SDS011;40636;52.424;-1.948;2023-02-24T01:22:06;7.25;;;2.60;;
43363;SDS011;40636;52.424;-1.948;2023-02-24T01:24:36;7.95;;;1.63;;
43363;SDS011;40636;52.424;-1.948;2023-02-24T01:27:05;3.50;;;1.25;;
43363;SDS011;40636;52.424;-1.948;2023-02-24T01:29:32;2.45;;;1.30;;
43363;SDS011;40636;52.424;-1.948;2023-02-24T01:32:22;6.28;;;2.00;;
43363;SDS011;40636;52.424;-1.948;2023-02-24T01:34:51;4.70;;;1.80;;
43363;SDS011;40636;52.424;-1.948;2023-02-24T01:37:18;2.42;;;1.58;;
43363;SDS011;40636;52.424;-1.948;2023-02-24T01:39:45;4.60;;;1.42;;
43363;SDS011;40636;52.424;-1.948;2023-02-24T01:42:17;6.68;;;1.85;;
43363;SDS011;40636;52.424;-1.948;2023-02-24T01:47:13;7.78;;;1.65;;
43363;SDS011;40636;52.424;-1.948;2023-02-24T01:49:44;4.40;;;1.63;;
43363;SDS011;40636;52.424;-1.948;2023-02-24T01:52:14;2.67;;;1.70;;
43363;SDS011;40636;52.424;-1.948;2023-02-24T01:54:47;2.15;;;1.10;;
43363;SDS011;40636;52.424;-1.948;2023-02-24T01:57:16;6.30;;;2.13;;
43363;SDS011;40636;52.424;-1.948;2023-02-24T01:59:46;3.33;;;1.65;;
43363;SDS011;40636;52.424;-1.948;2023-02-24T02:02:15;4.60;;;1.30;;
43363;SDS011;40636;52.424;-1.948;2023-02-24T02:04:48;6.40;;;1.90;;
43363;SDS011;40636;52.424;-1.948;2023-02-24T02:07:20;1.38;;;1.27;;
43363;SDS011;40636;52.424;-1.948;2023-02-24T02:09:48;1.45;;;1.00;;
43363;SDS011;40636;52.424;-1.948;2023-02-24T02:12:20;3.80;;;1.60;;
43363;SDS011;40636;52.424;-1.948;2023-02-24T02:14:48;1.20;;;1.05;;
43363;SDS011;40636;52.424;-1.948;2023-02-24T02:34:07;6.55;;;1.45;;
43363;SDS011;40636;52.424;-1.948;2023-02-24T02:36:54;6.75;;;1.92;;
43363;SDS011;40636;52.424;-1.948;2023-02-24T02:42:39;2.92;;;1.63;;
43363;SDS011;40636;52.424;-1.948;2023-02-24T02:45:09;2.67;;;1.38;;
43363;SDS011;40636;52.424;-1.948;2023-02-24T02:47:47;5.38;;;1.33;;
43363;SDS011;40636;52.424;-1.948;2023-02-24T02:50:26;2.85;;;1.83;;
43363;SDS011;40636;52.424;-1.948;2023-02-24T02:52:58;7.35;;;1.58;;
43363;SDS011;40636;52.424;-1.948;2023-02-24T02:58:07;5.03;;;1.70;;
43363;SDS011;40636;52.424;-1.948;2023-02-24T03:00:41;3.92;;;1.13;;
43363;SDS011;40636;52.424;-1.948;2023-02-24T03:03:24;1.38;;;1.25;;
43363;SDS011;40636;52.424;-1.948;2023-02-24T03:05:58;6.85;;;1.73;;
43363;SDS011;40636;52.424;-1.948;2023-02-24T03:08:29;4.35;;;1.48;;
43363;SDS011;40636;52.424;-1.948;2023-02-24T03:11:02;3.72;;;1.75;;
43363;SDS011;40636;52.424;-1.948;2023-02-24T03:13:34;3.63;;;1.23;;
43363;SDS011;40636;52.424;-1.948;2023-02-24T03:16:06;4.47;;;1.33;;
43363;SDS011;40636;52.424;-1.948;2023-02-24T03:18:38;3.40;;;1.13;;
43363;SDS011;40636;52.424;-1.948;2023-02-24T03:21:15;5.78;;;1.67;;
43363;SDS011;40636;52.424;-1.948;2023-02-24T03:23:48;5.40;;;1.40;;
43363;SDS011;40636;52.424;-1.948;2023-02-24T03:31:41;3.28;;;1.50;;
43363;SDS011;40636;52.424;-1.948;2023-02-24T03:34:21;5.82;;;1.77;;
43363;SDS011;40636;52.424;-1.948;2023-02-24T03:36:56;3.63;;;1.63;;
43363;SDS011;40636;52.424;-1.948;2023-02-24T03:39:23;6.35;;;2.13;;
43363;SDS011;40636;52.424;-1.948;2023-02-24T03:41:54;5.95;;;1.70;;
43363;SDS011;40636;52.424;-1.948;2023-02-24T03:44:29;2.08;;;1.75;;
43363;SDS011;40636;52.424;-1.948;2023-02-24T03:46:56;3.55;;;1.60;;
43363;SDS011;40636;52.424;-1.948;2023-02-24T03:49:22;7.68;;;2.63;;
43363;SDS011;40636;52.424;-1.948;2023-02-24T04:00:33;3.17;;;1.58;;
43363;SDS011;40636;52.424;-1.948;2023-02-24T04:06:28;3.50;;;1.30;;
43363;SDS011;40636;52.424;-1.948;2023-02-24T04:09:01;3.60;;;1.50;;
43363;SDS011;40636;52.424;-1.948;2023-02-24T04:11:34;2.17;;;1.50;;
43363;SDS011;40636;52.424;-1.948;2023-02-24T04:14:10;1.88;;;1.67;;
43363;SDS011;40636;52.424;-1.948;2023-02-24T04:16:47;3.20;;;1.52;;
43363;SDS011;40636;52.424;-1.948;2023-02-24T04:19:22;11.50;;;2.03;;
43363;SDS011;40636;52.424;-1.948;2023-02-24T04:21:52;5.90;;;1.77;;
43363;SDS011;40636;52.424;-1.948;2023-02-24T04:24:22;2.65;;;1.80;;
43363;SDS011;40636;52.424;-1.948;2023-02-24T04:26:54;5.22;;;1.38;;
43363;SDS011;40636;52.424;-1.948;2023-02-24T04:29:24;7.82;;;1.63;;
43363;SDS011;40636;52.424;-1.948;2023-02-24T04:31:59;5.07;;;1.55;;
43363;SDS011;40636;52.424;-1.948;2023-02-24T04:34:31;6.43;;;1.65;;
43363;SDS011;40636;52.424;-1.948;2023-02-24T04:36:58;1.63;;;1.50;;
43363;SDS011;40636;52.424;-1.948;2023-02-24T04:39:28;4.60;;;1.25;;
43363;SDS011;40636;52.424;-1.948;2023-02-24T04:41:56;4.60;;;1.60;;
43363;SDS011;40636;52.424;-1.948;2023-02-24T04:44:24;4.03;;;2.45;;
43363;SDS011;40636;52.424;-1.948;2023-02-24T04:46:51;3.40;;;1.30;;
43363;SDS011;40636;52.424;-1.948;2023-02-24T04:49:18;4.53;;;1.60;;
43363;SDS011;40636;52.424;-1.948;2023-02-24T04:51:45;2.13;;;1.30;;
43363;SDS011;40636;52.424;-1.948;2023-02-24T04:54:13;1.33;;;1.23;;
43363;SDS011;40636;52.424;-1.948;2023-02-24T04:56:43;3.40;;;1.50;;
43363;SDS011;40636;52.424;-1.948;2023-02-24T04:59:10;2.13;;;1.52;;
43363;SDS011;40636;52.424;-1.948;2023-02-24T05:01:37;5.13;;;1.55;;
43363;SDS011;40636;52.424;-1.948;2023-02-24T05:04:05;2.88;;;1.50;;
43363;SDS011;40636;52.424;-1.948;2023-02-24T05:06:32;5.53;;;1.70;;
43363;SDS011;40636;52.424;-1.948;2023-02-24T05:09:00;4.85;;;1.80;;
43363;SDS011;40636;52.424;-1.948;2023-02-24T05:11:27;3.30;;;1.45;;
43363;SDS011;40636;52.424;-1.948;2023-02-24T05:14:00;3.70;;;2.28;;
43363;SDS011;40636;52.424;-1.948;2023-02-24T05:16:29;3.58;;;1.80;;
43363;SDS011;40636;52.424;-1.948;2023-02-24T05:18:57;3.50;;;2.58;;
43363;SDS011;40636;52.424;-1.948;2023-02-24T05:21:42;3.45;;;1.67;;
43363;SDS011;40636;52.424;-1.948;2023-02-24T05:24:09;6.97;;;1.88;;
43363;SDS011;40636;52.424;-1.948;2023-02-24T05:26:37;13.57;;;1.85;;
43363;SDS011;40636;52.424;-1.948;2023-02-24T05:29:07;1.45;;;1.27;;
43363;SDS011;40636;52.424;-1.948;2023-02-24T05:31:36;4.60;;;1.70;;
43363;SDS011;40636;52.424;-1.948;2023-02-24T05:34:04;6.43;;;2.33;;
43363;SDS011;40636;52.424;-1.948;2023-02-24T05:36:34;10.45;;;3.15;;
43363;SDS011;40636;52.424;-1.948;2023-02-24T05:39:06;5.32;;;1.48;;
43363;SDS011;40636;52.424;-1.948;2023-02-24T05:41:36;4.55;;;2.05;;
43363;SDS011;40636;52.424;-1.948;2023-02-24T05:44:05;6.75;;;1.90;;
43363;SDS011;40636;52.424;-1.948;2023-02-24T05:46:37;8.38;;;1.83;;
43363;SDS011;40636;52.424;-1.948;2023-02-24T05:49:07;3.50;;;1.45;;
43363;SDS011;40636;52.424;-1.948;2023-02-24T05:51:49;5.55;;;1.83;;
43363;SDS011;40636;52.424;-1.948;2023-02-24T05:54:30;5.00;;;1.40;;
43363;SDS011;40636;52.424;-1.948;2023-02-24T05:56:59;4.15;;;1.33;;
43363;SDS011;40636;52.424;-1.948;2023-02-24T05:59:30;7.25;;;2.42;;
43363;SDS011;40636;52.424;-1.948;2023-02-24T06:02:03;13.80;;;2.78;;
43363;SDS011;40636;52.424;-1.948;2023-02-24T06:04:35;4.95;;;1.55;;
43363;SDS011;40636;52.424;-1.948;2023-02-24T06:09:45;7.15;;;1.30;;
43363;SDS011;40636;52.424;-1.948;2023-02-24T06:12:16;4.75;;;1.50;;
43363;SDS011;40636;52.424;-1.948;2023-02-24T06:14:43;2.63;;;1.67;;
43363;SDS011;40636;52.424;-1.948;2023-02-24T06:17:11;1.50;;;1.40;;
43363;SDS011;40636;52.424;-1.948;2023-02-24T06:19:40;3.00;;;1.48;;
43363;SDS011;40636;52.424;-1.948;2023-02-24T06:22:08;3.20;;;1.30;;
43363;SDS011;40636;52.424;-1.948;2023-02-24T06:24:38;5.90;;;1.98;;
43363;SDS011;40636;52.424;-1.948;2023-02-24T06:27:11;10.35;;;1.77;;
43363;SDS011;40636;52.424;-1.948;2023-02-24T06:29:48;1.70;;;1.60;;
43363;SDS011;40636;52.424;-1.948;2023-02-24T06:32:19;6.28;;;1.77;;
43363;SDS011;40636;52.424;-1.948;2023-02-24T06:34:49;9.35;;;1.95;;
43363;SDS011;40636;52.424;-1.948;2023-02-24T06:37:17;6.47;;;2.17;;
43363;SDS011;40636;52.424;-1.948;2023-02-24T06:39:44;4.10;;;1.65;;
43363;SDS011;40636;52.424;-1.948;2023-02-24T06:42:11;10.48;;;2.75;;
43363;SDS011;40636;52.424;-1.948;2023-02-24T06:44:38;4.40;;;1.70;;
43363;SDS011;40636;52.424;-1.948;2023-02-24T06:47:09;5.18;;;2.53;;
43363;SDS011;40636;52.424;-1.948;2023-02-24T06:49:38;7.40;;;2.63;;
43363;SDS011;40636;52.424;-1.948;2023-02-24T06:52:05;4.82;;;1.95;;
43363;SDS011;40636;52.424;-1.948;2023-02-24T06:54:33;7.45;;;2.97;;
43363;SDS011;40636;52.424;-1.948;2023-02-24T06:57:01;7.93;;;1.92;;
43363;SDS011;40636;52.424;-1.948;2023-02-24T06:59:29;13.35;;;2.58;;
43363;SDS011;40636;52.424;-1.948;2023-02-24T07:01:59;6.65;;;2.42;;
43363;SDS011;40636;52.424;-1.948;2023-02-24T07:04:29;3.72;;;1.90;;
43363;SDS011;40636;52.424;-1.948;2023-02-24T07:07:01;7.20;;;2.42;;
43363;SDS011;40636;52.424;-1.948;2023-02-24T07:09:29;8.77;;;2.45;;
43363;SDS011;40636;52.424;-1.948;2023-02-24T07:11:56;13.75;;;2.60;;
43363;SDS011;40636;52.424;-1.948;2023-02-24T07:14:25;8.25;;;2.13;;
43363;SDS011;40636;52.424;-1.948;2023-02-24T07:16:56;3.88;;;2.25;;
43363;SDS011;40636;52.424;-1.948;2023-02-24T07:19:27;4.35;;;1.95;;
43363;SDS011;40636;52.424;-1.948;2023-02-24T07:21:58;12.10;;;2.75;;
43363;SDS011;40636;52.424;-1.948;2023-02-24T07:24:28;9.00;;;2.13;;
43363;SDS011;40636;52.424;-1.948;2023-02-24T07:27:03;7.43;;;2.30;;
43363;SDS011;40636;52.424;-1.948;2023-02-24T07:29:31;6.60;;;2.53;;
43363;SDS011;40636;52.424;-1.948;2023-02-24T07:32:00;6.80;;;2.40;;
43363;SDS011;40636;52.424;-1.948;2023-02-24T07:34:31;8.75;;;2.40;;
43363;SDS011;40636;52.424;-1.948;2023-02-24T07:36:59;11.20;;;2.65;;
43363;SDS011;40636;52.424;-1.948;2023-02-24T07:39:32;13.25;;;2.83;;
43363;SDS011;40636;52.424;-1.948;2023-02-24T07:41:59;9.68;;;3.47;;
43363;SDS011;40636;52.424;-1.948;2023-02-24T07:44:26;9.18;;;3.47;;
43363;SDS011;40636;52.424;-1.948;2023-02-24T07:46:54;7.28;;;2.28;;
43363;SDS011;40636;52.424;-1.948;2023-02-24T07:49:24;4.97;;;2.63;;
43363;SDS011;40636;52.424;-1.948;2023-02-24T07:51:53;10.88;;;2.83;;
43363;SDS011;40636;52.424;-1.948;2023-02-24T07:54:23;11.10;;;2.75;;
43363;SDS011;40636;52.424;-1.948;2023-02-24T07:56:50;14.85;;;2.80;;
43363;SDS011;40636;52.424;-1.948;2023-02-24T07:59:28;12.52;;;2.90;;
43363;SDS011;40636;52.424;-1.948;2023-02-24T08:01:57;9.27;;;2.53;;
43363;SDS011;40636;52.424;-1.948;2023-02-24T08:04:25;6.43;;;2.70;;
43363;SDS011;40636;52.424;-1.948;2023-02-24T08:06:53;13.00;;;2.78;;
43363;SDS011;40636;52.424;-1.948;2023-02-24T08:09:22;9.80;;;2.80;;
43363;SDS011;40636;52.424;-1.948;2023-02-24T08:12:17;7.38;;;3.67;;
43363;SDS011;40636;52.424;-1.948;2023-02-24T08:14:48;8.57;;;3.35;;
43363;SDS011;40636;52.424;-1.948;2023-02-24T08:17:17;6.40;;;2.55;;
43363;SDS011;40636;52.424;-1.948;2023-02-24T08:19:49;9.00;;;2.45;;
43363;SDS011;40636;52.424;-1.948;2023-02-24T08:22:33;7.00;;;2.65;;
43363;SDS011;40636;52.424;-1.948;2023-02-24T08:25:02;5.88;;;3.10;;
43363;SDS011;40636;52.424;-1.948;2023-02-24T08:27:33;8.38;;;3.15;;
43363;SDS011;40636;52.424;-1.948;2023-02-24T08:30:07;10.95;;;2.83;;
43363;SDS011;40636;52.424;-1.948;2023-02-24T08:32:46;14.02;;;3.33;;
43363;SDS011;40636;52.424;-1.948;2023-02-24T08:35:18;10.00;;;3.20;;
43363;SDS011;40636;52.424;-1.948;2023-02-24T08:37:46;8.07;;;3.33;;
43363;SDS011;40636;52.424;-1.948;2023-02-24T08:40:24;8.85;;;3.22;;
43363;SDS011;40636;52.424;-1.948;2023-02-24T08:42:57;8.35;;;2.95;;
43363;SDS011;40636;52.424;-1.948;2023-02-24T08:45:46;8.80;;;3.58;;
43363;SDS011;40636;52.424;-1.948;2023-02-24T08:50:59;6.30;;;2.83;;
43363;SDS011;40636;52.424;-1.948;2023-02-24T08:53:29;7.78;;;2.65;;
43363;SDS011;40636;52.424;-1.948;2023-02-24T08:56:00;7.68;;;2.65;;
43363;SDS011;40636;52.424;-1.948;2023-02-24T08:58:35;14.50;;;3.53;;
43363;SDS011;40636;52.424;-1.948;2023-02-24T09:01:19;10.70;;;3.00;;
43363;SDS011;40636;52.424;-1.948;2023-02-24T09:03:53;7.00;;;3.35;;
43363;SDS011;40636;52.424;-1.948;2023-02-24T09:06:43;9.68;;;3.20;;
43363;SDS011;40636;52.424;-1.948;2023-02-24T09:09:17;8.82;;;3.55;;
43363;SDS011;40636;52.424;-1.948;2023-02-24T09:14:23;6.38;;;3.53;;
43363;SDS011;40636;52.424;-1.948;2023-02-24T09:16:55;5.05;;;2.65;;
43363;SDS011;40636;52.424;-1.948;2023-02-24T09:22:27;10.60;;;3.72;;
43363;SDS011;40636;52.424;-1.948;2023-02-24T09:25:11;12.40;;;3.45;;
43363;SDS011;40636;52.424;-1.948;2023-02-24T09:30:44;16.50;;;3.53;;
43363;SDS011;40636;52.424;-1.948;2023-02-24T09:35:58;5.40;;;3.10;;
43363;SDS011;40636;52.424;-1.948;2023-02-24T09:38:37;13.43;;;5.55;;
43363;SDS011;40636;52.424;-1.948;2023-02-24T09:44:35;5.72;;;3.33;;
43363;SDS011;40636;52.424;-1.948;2023-02-24T09:49:50;9.35;;;4.15;;
43363;SDS011;40636;52.424;-1.948;2023-02-24T09:52:23;13.82;;;4.15;;
43363;SDS011;40636;52.424;-1.948;2023-02-24T09:55:10;7.10;;;3.97;;
43363;SDS011;40636;52.424;-1.948;2023-02-24T09:57:57;9.82;;;4.15;;
43363;SDS011;40636;52.424;-1.948;2023-02-24T10:00:48;9.25;;;3.45;;
43363;SDS011;40636;52.424;-1.948;2023-02-24T10:03:24;11.65;;;4.63;;
43363;SDS011;40636;52.424;-1.948;2023-02-24T10:06:13;7.82;;;4.13;;
43363;SDS011;40636;52.424;-1.948;2023-02-24T10:08:51;10.63;;;3.75;;
43363;SDS011;40636;52.424;-1.948;2023-02-24T10:11:23;13.38;;;4.75;;
43363;SDS011;40636;52.424;-1.948;2023-02-24T10:16:31;11.48;;;4.35;;
43363;SDS011;40636;52.424;-1.948;2023-02-24T10:21:53;8.15;;;2.90;;
43363;SDS011;40636;52.424;-1.948;2023-02-24T10:24:36;7.65;;;3.38;;
43363;SDS011;40636;52.424;-1.948;2023-02-24T10:27:13;13.05;;;3.83;;
43363;SDS011;40636;52.424;-1.948;2023-02-24T10:30:00;10.20;;;4.28;;
43363;SDS011;40636;52.424;-1.948;2023-02-24T10:32:42;9.65;;;4.20;;
43363;SDS011;40636;52.424;-1.948;2023-02-24T10:35:20;8.70;;;3.97;;
43363;SDS011;40636;52.424;-1.948;2023-02-24T10:37:51;6.25;;;3.53;;
43363;SDS011;40636;52.424;-1.948;2023-02-24T10:40:19;5.05;;;2.45;;
43363;SDS011;40636;52.424;-1.948;2023-02-24T10:43:13;9.63;;;4.25;;
43363;SDS011;40636;52.424;-1.948;2023-02-24T10:45:45;4.70;;;3.10;;
43363;SDS011;40636;52.424;-1.948;2023-02-24T10:48:17;5.97;;;2.92;;
43363;SDS011;40636;52.424;-1.948;2023-02-24T10:51:07;7.43;;;3.95;;
43363;SDS011;40636;52.424;-1.948;2023-02-24T10:53:37;11.88;;;3.67;;
43363;SDS011;40636;52.424;-1.948;2023-02-24T10:56:13;7.97;;;3.55;;
43363;SDS011;40636;52.424;-1.948;2023-02-24T10:59:08;8.73;;;3.30;;
43363;SDS011;40636;52.424;-1.948;2023-02-24T11:02:16;10.73;;;4.20;;
43363;SDS011;40636;52.424;-1.948;2023-02-24T11:08:04;6.90;;;3.08;;
43363;SDS011;40636;52.424;-1.948;2023-02-24T11:11:14;6.18;;;3.05;;
43363;SDS011;40636;52.424;-1.948;2023-02-24T11:13:51;10.18;;;2.67;;
43363;SDS011;40636;52.424;-1.948;2023-02-24T11:16:50;5.63;;;2.22;;
43363;SDS011;40636;52.424;-1.948;2023-02-24T11:22:21;3.95;;;2.40;;
43363;SDS011;40636;52.424;-1.948;2023-02-24T11:24:50;4.07;;;1.60;;
43363;SDS011;40636;52.424;-1.948;2023-02-24T11:27:20;7.07;;;2.78;;
43363;SDS011;40636;52.424;-1.948;2023-02-24T11:29:56;2.40;;;1.80;;
43363;SDS011;40636;52.424;-1.948;2023-02-24T11:32:49;3.95;;;1.40;;
43363;SDS011;40636;52.424;-1.948;2023-02-24T11:40:44;7.03;;;2.10;;
43363;SDS011;40636;52.424;-1.948;2023-02-24T11:43:18;3.95;;;1.70;;
43363;SDS011;40636;52.424;-1.948;2023-02-24T11:46:01;6.10;;;2.72;;
43363;SDS011;40636;52.424;-1.948;2023-02-24T11:48:54;5.60;;;2.42;;
43363;SDS011;40636;52.424;-1.948;2023-02-24T11:51:31;7.68;;;2.28;;
43363;SDS011;40636;52.424;-1.948;2023-02-24T11:54:03;4.20;;;1.98;;
43363;SDS011;40636;52.424;-1.948;2023-02-24T11:56:37;4.60;;;1.95;;
43363;SDS011;40636;52.424;-1.948;2023-02-24T12:07:29;4.60;;;1.52;;
43363;SDS011;40636;52.424;-1.948;2023-02-24T12:10:15;2.72;;;1.83;;
43363;SDS011;40636;52.424;-1.948;2023-02-24T12:12:53;7.55;;;1.90;;
43363;SDS011;40636;52.424;-1.948;2023-02-24T12:15:30;3.10;;;1.23;;
43363;SDS011;40636;52.424;-1.948;2023-02-24T12:18:05;7.05;;;1.73;;
43363;SDS011;40636;52.424;-1.948;2023-02-24T12:20:42;4.10;;;1.63;;
43363;SDS011;40636;52.424;-1.948;2023-02-24T12:26:11;3.53;;;1.75;;
43363;SDS011;40636;52.424;-1.948;2023-02-24T12:43:28;4.22;;;1.58;;
43363;SDS011;40636;52.424;-1.948;2023-02-24T12:54:14;3.40;;;1.90;;
43363;SDS011;40636;52.424;-1.948;2023-02-24T12:56:51;4.35;;;1.70;;
43363;SDS011;40636;52.424;-1.948;2023-02-24T12:59:20;5.40;;;1.70;;
43363;SDS011;40636;52.424;-1.948;2023-02-24T13:15:28;3.55;;;1.10;;
43363;SDS011;40636;52.424;-1.948;2023-02-24T13:17:56;6.70;;;1.52;;
43363;SDS011;40636;52.424;-1.948;2023-02-24T13:20:28;3.80;;;1.33;;
43363;SDS011;40636;52.424;-1.948;2023-02-24T13:22:55;3.03;;;1.27;;
43363;SDS011;40636;52.424;-1.948;2023-02-24T13:25:29;1.85;;;1.45;;
43363;SDS011;40636;52.424;-1.948;2023-02-24T13:28:03;6.50;;;1.50;;
43363;SDS011;40636;52.424;-1.948;2023-02-24T13:30:45;6.70;;;1.58;;
43363;SDS011;40636;52.424;-1.948;2023-02-24T13:35:49;3.15;;;1.08;;
43363;SDS011;40636;52.424;-1.948;2023-02-24T13:38:25;4.97;;;1.40;;
43363;SDS011;40636;52.424;-1.948;2023-02-24T13:41:18;4.88;;;1.80;;
43363;SDS011;40636;52.424;-1.948;2023-02-24T13:46:19;4.63;;;2.15;;
43363;SDS011;40636;52.424;-1.948;2023-02-24T13:48:49;4.55;;;1.40;;
43363;SDS011;40636;52.424;-1.948;2023-02-24T13:54:17;3.45;;;1.75;;
43363;SDS011;40636;52.424;-1.948;2023-02-24T13:57:09;3.33;;;1.52;;
43363;SDS011;40636;52.424;-1.948;2023-02-24T14:02:40;5.78;;;1.95;;
43363;SDS011;40636;52.424;-1.948;2023-02-24T14:05:12;8.80;;;2.47;;
43363;SDS011;40636;52.424;-1.948;2023-02-24T14:07:45;2.25;;;1.55;;
43363;SDS011;40636;52.424;-1.948;2023-02-24T14:10:18;8.75;;;1.60;;
43363;SDS011;40636;52.424;-1.948;2023-02-24T14:12:56;5.05;;;2.10;;
43363;SDS011;40636;52.424;-1.948;2023-02-24T14:15:30;5.35;;;2.40;;
43363;SDS011;40636;52.424;-1.948;2023-02-24T14:17:58;9.07;;;2.10;;
43363;SDS011;40636;52.424;-1.948;2023-02-24T14:20:29;3.30;;;1.50;;
43363;SDS011;40636;52.424;-1.948;2023-02-24T14:22:58;7.80;;;2.08;;
43363;SDS011;40636;52.424;-1.948;2023-02-24T14:25:26;7.07;;;2.30;;
43363;SDS011;40636;52.424;-1.948;2023-02-24T14:27:59;9.13;;;3.53;;
43363;SDS011;40636;52.424;-1.948;2023-02-24T14:30:30;4.90;;;1.95;;
43363;SDS011;40636;52.424;-1.948;2023-02-24T14:32:57;5.75;;;1.60;;
43363;SDS011;40636;52.424;-1.948;2023-02-24T14:37:53;6.07;;;1.80;;
43363;SDS011;40636;52.424;-1.948;2023-02-24T14:40:21;4.47;;;2.13;;
43363;SDS011;40636;52.424;-1.948;2023-02-24T14:42:51;5.53;;;2.10;;
43363;SDS011;40636;52.424;-1.948;2023-02-24T14:45:21;3.30;;;1.42;;
43363;SDS011;40636;52.424;-1.948;2023-02-24T14:47:53;7.43;;;1.50;;
43363;SDS011;40636;52.424;-1.948;2023-02-24T14:50:23;3.60;;;1.92;;
43363;SDS011;40636;52.424;-1.948;2023-02-24T14:53:04;4.72;;;1.77;;
43363;SDS011;40636;52.424;-1.948;2023-02-24T14:55:39;3.67;;;1.60;;
43363;SDS011;40636;52.424;-1.948;2023-02-24T14:58:19;4.40;;;1.67;;
43363;SDS011;40636;52.424;-1.948;2023-02-24T15:00:54;5.28;;;2.67;;
43363;SDS011;40636;52.424;-1.948;2023-02-24T15:03:26;6.32;;;1.80;;
43363;SDS011;40636;52.424;-1.948;2023-02-24T15:05:57;3.45;;;1.67;;
43363;SDS011;40636;52.424;-1.948;2023-02-24T15:08:34;6.72;;;1.73;;
43363;SDS011;40636;52.424;-1.948;2023-02-24T15:11:07;3.05;;;1.75;;
43363;SDS011;40636;52.424;-1.948;2023-02-24T15:13:52;5.78;;;2.40;;
43363;SDS011;40636;52.424;-1.948;2023-02-24T15:19:16;10.68;;;4.22;;
43363;SDS011;40636;52.424;-1.948;2023-02-24T15:21:51;9.25;;;2.28;;
43363;SDS011;40636;52.424;-1.948;2023-02-24T15:24:19;6.55;;;2.15;;
43363;SDS011;40636;52.424;-1.948;2023-02-24T15:26:54;8.07;;;2.78;;
43363;SDS011;40636;52.424;-1.948;2023-02-24T15:29:24;4.18;;;2.67;;
43363;SDS011;40636;52.424;-1.948;2023-02-24T15:31:56;5.18;;;2.08;;
43363;SDS011;40636;52.424;-1.948;2023-02-24T15:34:29;5.32;;;2.00;;
43363;SDS011;40636;52.424;-1.948;2023-02-24T15:36:58;5.40;;;2.00;;
43363;SDS011;40636;52.424;-1.948;2023-02-24T15:39:30;8.60;;;3.47;;
43363;SDS011;40636;52.424;-1.948;2023-02-24T15:42:08;4.18;;;1.85;;
43363;SDS011;40636;52.424;-1.948;2023-02-24T15:44:55;4.78;;;1.90;;
43363;SDS011;40636;52.424;-1.948;2023-02-24T15:47:50;7.30;;;2.53;;
43363;SDS011;40636;52.424;-1.948;2023-02-24T15:50:20;7.15;;;1.73;;
43363;SDS011;40636;52.424;-1.948;2023-02-24T15:52:47;5.93;;;1.23;;
43363;SDS011;40636;52.424;-1.948;2023-02-24T15:55:15;6.20;;;2.10;;
43363;SDS011;40636;52.424;-1.948;2023-02-24T15:57:43;9.38;;;1.83;;
43363;SDS011;40636;52.424;-1.948;2023-02-24T16:00:13;10.18;;;1.98;;
43363;SDS011;40636;52.424;-1.948;2023-02-24T16:02:45;21.15;;;2.08;;
43363;SDS011;40636;52.424;-1.948;2023-02-24T16:05:14;5.60;;;1.65;;
43363;SDS011;40636;52.424;-1.948;2023-02-24T16:07:53;3.97;;;1.55;;
43363;SDS011;40636;52.424;-1.948;2023-02-24T16:10:24;5.43;;;1.48;;
43363;SDS011;40636;52.424;-1.948;2023-02-24T16:12:55;6.13;;;1.65;;
43363;SDS011;40636;52.424;-1.948;2023-02-24T16:15:26;8.20;;;2.20;;
43363;SDS011;40636;52.424;-1.948;2023-02-24T16:17:56;4.30;;;1.75;;
43363;SDS011;40636;52.424;-1.948;2023-02-24T16:20:25;5.93;;;1.55;;
43363;SDS011;40636;52.424;-1.948;2023-02-24T16:22:53;6.38;;;1.92;;
43363;SDS011;40636;52.424;-1.948;2023-02-24T16:25:22;4.15;;;1.85;;
43363;SDS011;40636;52.424;-1.948;2023-02-24T16:27:49;6.47;;;2.70;;
43363;SDS011;40636;52.424;-1.948;2023-02-24T16:30:26;6.75;;;2.10;;
43363;SDS011;40636;52.424;-1.948;2023-02-24T16:32:56;7.53;;;2.10;;
43363;SDS011;40636;52.424;-1.948;2023-02-24T16:35:26;6.50;;;1.67;;
43363;SDS011;40636;52.424;-1.948;2023-02-24T16:37:53;5.78;;;1.45;;
43363;SDS011;40636;52.424;-1.948;2023-02-24T16:40:26;6.60;;;1.63;;
43363;SDS011;40636;52.424;-1.948;2023-02-24T16:42:58;6.88;;;1.75;;
43363;SDS011;40636;52.424;-1.948;2023-02-24T16:45:26;2.70;;;1.30;;
43363;SDS011;40636;52.424;-1.948;2023-02-24T16:47:55;4.20;;;1.33;;
43363;SDS011;40636;52.424;-1.948;2023-02-24T16:50:29;7.55;;;1.50;;
43363;SDS011;40636;52.424;-1.948;2023-02-24T16:53:06;5.18;;;1.38;;
43363;SDS011;40636;52.424;-1.948;2023-02-24T16:55:34;4.80;;;1.45;;
43363;SDS011;40636;52.424;-1.948;2023-02-24T16:58:01;5.93;;;1.70;;
43363;SDS011;40636;52.424;-1.948;2023-02-24T17:00:27;5.13;;;1.38;;
43363;SDS011;40636;52.424;-1.948;2023-02-24T17:02:54;8.30;;;1.45;;
43363;SDS011;40636;52.424;-1.948;2023-02-24T17:05:22;7.25;;;2.97;;
43363;SDS011;40636;52.424;-1.948;2023-02-24T17:07:52;8.00;;;2.20;;
43363;SDS011;40636;52.424;-1.948;2023-02-24T17:10:20;7.28;;;1.77;;
43363;SDS011;40636;52.424;-1.948;2023-02-24T17:12:48;3.72;;;1.40;;
43363;SDS011;40636;52.424;-1.948;2023-02-24T17:15:17;2.97;;;1.88;;
43363;SDS011;40636;52.424;-1.948;2023-02-24T17:17:48;1.85;;;1.10;;
43363;SDS011;40636;52.424;-1.948;2023-02-24T17:20:16;3.00;;;1.20;;
43363;SDS011;40636;52.424;-1.948;2023-02-24T17:22:45;4.57;;;1.25;;
43363;SDS011;40636;52.424;-1.948;2023-02-24T17:25:16;10.07;;;2.10;;
43363;SDS011;40636;52.424;-1.948;2023-02-24T17:27:47;7.15;;;2.35;;
43363;SDS011;40636;52.424;-1.948;2023-02-24T17:30:16;4.03;;;0.90;;
43363;SDS011;40636;52.424;-1.948;2023-02-24T17:32:45;5.63;;;1.50;;